Senin
| Ora | Descriere | Temp | Se simte | Precipitatii | Umiditate | Vant |
|---|---|---|---|---|---|---|
| 00:00 | Senin | 13.7° | 12.7° | 0% | 74% | ESE 13 KM/H |
| 01:00 | Senin | 13.2° | 12.4° | 0% | 72% | ESE 10.4 KM/H |
| 02:00 | Senin | 12.7° | 11.9° | 0% | 73% | E 9.7 KM/H |
| 03:00 | Senin | 12.2° | 11.1° | 0% | 73% | ENE 11.2 KM/H |
| 04:00 | Senin | 11.8° | 10.4° | 0% | 73% | ENE 12.6 KM/H |
| 05:00 | Senin | 11.3° | 10° | 0% | 73% | ENE 11.2 KM/H |
| 06:00 | Senin | 10.8° | 9.5° | 0% | 72% | ENE 10.4 KM/H |
| 07:00 | Senin | 11.2° | 9.8° | 0% | 73% | ENE 11.5 KM/H |
| 08:00 | 13.2° | 12.2° | 0% | 68% | ENE 11.5 KM/H | |
| 09:00 | Senin | 16.1° | 14.3° | 0% | 59% | ENE 12.2 KM/H |
| 10:00 | Senin | 16.7° | 16.7° | 0% | 60% | E 12.2 KM/H |
| 11:00 | Senin | 18.7° | 18.7° | 0% | 55% | E 13 KM/H |
| 12:00 | Senin | 20.8° | 20.8° | 0% | 50% | E 11.2 KM/H |
| 13:00 | Senin | 22.3° | 24.4° | 0% | 47% | ESE 10.4 KM/H |
| 14:00 | Senin | 23.4° | 24.7° | 0% | 45% | ESE 11.5 KM/H |
| 15:00 | Senin | 24.1° | 25° | 0% | 44% | ESE 10.4 KM/H |
| 16:00 | Senin | 24.6° | 25.2° | 0% | 43% | SE 9 KM/H |
| 17:00 | Senin | 24.5° | 25.2° | 0% | 43% | SE 8.6 KM/H |
| 18:00 | Senin | 24.1° | 25.2° | 0% | 48% | SE 7.9 KM/H |
| 19:00 | 22.8° | 24.8° | 0% | 57% | ESE 6.8 KM/H | |
| 20:00 | 20.3° | 20.3° | 0% | 66% | ESE 11.9 KM/H | |
| 21:00 | Ploaie ușoară | 18.5° | 18.5° | 100% | 78% | SE 14.8 KM/H |
| 22:00 | Ploi usoare | 16.9° | 16.9° | 100% | 89% | SSW 13.3 KM/H |
| 23:00 | Ploi moderate sau averse | 16.7° | 16.7° | 100% | 91% | W 20.2 KM/H |